Time;durP1;ratioP1;P1;durP2;ratioP2;P2;SDS_P1;SDS_P2;PMS_P1;PMS_P2;Temp;Humidity;BMP_temperature;BMP_pressure;BME280_temperature;BME280_humidity;BME280_pressure;Samples;Min_cycle;Max_cycle;Signal;HPM_P1;HPM_P2
2023/08/23 00:00:33;;;;;;;7.30;6.57;;;;;;;20.75;nan;97158.47;4970297;28;20208;-61
2023/08/23 00:03:02;;;;;;;7.27;6.67;;;;;;;20.73;nan;97149.00;5020597;28;20212;-63
2023/08/23 00:05:31;;;;;;;6.70;6.10;;;;;;;20.65;nan;97145.69;5018298;28;20219;-64
2023/08/23 00:07:59;;;;;;;6.27;5.77;;;;;;;20.56;nan;97151.75;5015742;28;20205;-61
2023/08/23 00:10:27;;;;;;;7.30;6.63;;;;;;;20.49;nan;97158.13;5016276;28;20224;-64
2023/08/23 00:12:56;;;;;;;6.57;6.13;;;;;;;20.45;nan;97157.00;5019610;28;20204;-63
2023/08/23 00:15:24;;;;;;;6.40;5.90;;;;;;;20.45;nan;97151.63;5018739;28;20684;-62
2023/08/23 00:17:51;;;;;;;7.30;6.60;;;;;;;20.53;nan;97155.78;5017939;28;20252;-64
2023/08/23 00:20:19;;;;;;;7.23;6.47;;;;;;;20.56;nan;97162.53;4888358;28;20270;-66
2023/08/23 00:22:48;;;;;;;6.80;6.33;;;;;;;20.54;nan;97154.72;5016438;28;20208;-64
2023/08/23 00:25:16;;;;;;;8.50;7.10;;;;;;;20.53;nan;97153.88;5011074;28;20197;-65
2023/08/23 00:27:43;;;;;;;6.93;6.33;;;;;;;20.51;nan;97153.31;5016883;28;20225;-64
2023/08/23 00:30:13;;;;;;;7.63;7.00;;;;;;;20.51;nan;97158.72;5017758;28;20702;-64
2023/08/23 00:32:40;;;;;;;7.23;6.63;;;;;;;20.50;nan;97162.47;5016186;28;20212;-64
2023/08/23 00:35:09;;;;;;;7.30;6.70;;;;;;;20.32;nan;97143.94;5014129;28;20631;-65
2023/08/23 00:37:36;;;;;;;7.20;6.50;;;;;;;20.41;nan;97165.81;5019048;28;20228;-64
2023/08/23 00:40:08;;;;;;;9.87;6.57;;;;;;;20.45;nan;97173.16;5015208;28;20833;-63
2023/08/23 00:42:35;;;;;;;7.60;7.00;;;;;;;20.47;nan;97164.84;5017707;28;20248;-64
2023/08/23 00:45:04;;;;;;;7.10;6.40;;;;;;;20.49;nan;97176.19;5015850;28;20601;-64
2023/08/23 00:47:32;;;;;;;6.93;6.33;;;;;;;20.46;nan;97174.78;5020208;28;20878;-63
2023/08/23 00:49:59;;;;;;;7.57;6.97;;;;;;;20.38;nan;97167.94;4998299;28;20220;-61
2023/08/23 00:52:27;;;;;;;8.90;6.63;;;;;;;20.30;nan;97162.19;5027282;28;20823;-62
2023/08/23 00:55:00;;;;;;;7.87;7.27;;;;;;;20.28;nan;97167.00;4883941;28;20281;-65
2023/08/23 00:57:29;;;;;;;7.27;6.67;;;;;;;20.13;nan;97163.00;5018286;28;20242;-61
2023/08/23 00:59:57;;;;;;;7.10;6.70;;;;;;;20.10;nan;97166.19;5014127;28;21035;-63
2023/08/23 01:02:25;;;;;;;7.30;6.80;;;;;;;20.04;nan;97164.50;5018245;28;20196;-64
2023/08/23 01:04:52;;;;;;;8.07;7.30;;;;;;;19.95;nan;97164.09;5011834;28;20216;-63
2023/08/23 01:07:24;;;;;;;8.77;7.80;;;;;;;19.91;nan;97160.25;5014748;28;20236;-62
2023/08/23 01:09:55;;;;;;;7.40;6.80;;;;;;;19.91;nan;97160.25;5011940;28;20209;-63
2023/08/23 01:12:28;;;;;;;7.57;7.10;;;;;;;19.84;nan;97154.22;5017505;28;20244;-63
2023/08/23 01:15:00;;;;;;;7.10;6.40;;;;;;;19.81;nan;97153.66;5013206;28;20215;-63
2023/08/23 01:17:29;;;;;;;7.30;6.63;;;;;;;19.75;nan;97151.94;5016381;28;20224;-65
2023/08/23 01:19:57;;;;;;;7.70;7.00;;;;;;;19.64;nan;97131.31;5010614;28;20587;-63
2023/08/23 01:22:29;;;;;;;7.63;6.93;;;;;;;19.71;nan;97144.59;5016193;28;20204;-63
2023/08/23 01:24:58;;;;;;;7.60;7.10;;;;;;;19.66;nan;97143.44;4885364;28;20216;-63
2023/08/23 01:27:26;;;;;;;6.80;6.23;;;;;;;19.65;nan;97152.56;5020116;28;20232;-65
2023/08/23 01:29:54;;;;;;;7.83;7.13;;;;;;;19.69;nan;97149.41;5016232;28;20298;-63
2023/08/23 01:32:28;;;;;;;8.70;6.73;;;;;;;19.70;nan;97145.66;5016416;28;20220;-64
2023/08/23 01:35:00;;;;;;;7.33;6.73;;;;;;;19.67;nan;97147.78;5012756;28;20212;-63
2023/08/23 01:37:27;;;;;;;7.67;6.87;;;;;;;19.63;nan;97149.31;5015819;28;20239;-64
2023/08/23 01:39:57;;;;;;;7.93;6.97;;;;;;;19.56;nan;97148.66;5013094;28;20212;-64
2023/08/23 01:42:25;;;;;;;7.30;6.83;;;;;;;19.56;nan;97154.03;5017449;28;20545;-64
2023/08/23 01:44:53;;;;;;;7.27;6.73;;;;;;;19.55;nan;97143.53;5013688;28;20204;-63
2023/08/23 01:47:20;;;;;;;7.33;6.43;;;;;;;19.55;nan;97141.66;5020745;28;20234;-63
2023/08/23 01:49:48;;;;;;;7.43;6.83;;;;;;;19.49;nan;97143.44;5010925;28;20332;-64
2023/08/23 01:52:16;;;;;;;7.57;6.87;;;;;;;19.52;nan;97151.00;5015108;28;20224;-64
2023/08/23 01:54:43;;;;;;;7.70;7.10;;;;;;;19.51;nan;97143.22;5013389;28;20216;-63
2023/08/23 01:57:12;;;;;;;7.30;6.67;;;;;;;19.49;nan;97148.81;5018725;28;20269;-63
2023/08/23 01:59:40;;;;;;;8.23;7.43;;;;;;;19.49;nan;97145.28;4888725;28;20648;-63
2023/08/23 02:02:08;;;;;;;7.40;6.90;;;;;;;19.48;nan;97147.19;5014475;28;20213;-62
2023/08/23 02:04:36;;;;;;;7.03;6.50;;;;;;;19.49;nan;97151.50;5016043;28;20659;-64
2023/08/23 02:07:03;;;;;;;7.77;7.17;;;;;;;19.43;nan;97143.59;5013626;28;20595;-63
2023/08/23 02:09:33;;;;;;;7.67;7.07;;;;;;;19.37;nan;97148.06;5015084;28;20200;-63
2023/08/23 02:12:01;;;;;;;7.73;7.03;;;;;;;19.35;nan;97148.31;5021190;28;20228;-63
2023/08/23 02:14:30;;;;;;;10.20;7.87;;;;;;;19.33;nan;97152.31;5018444;28;20216;-63
2023/08/23 02:16:57;;;;;;;7.23;6.73;;;;;;;19.31;nan;97151.69;5017719;28;20623;-62
2023/08/23 02:19:25;;;;;;;7.40;6.80;;;;;;;19.31;nan;97152.53;5012022;28;20204;-63
2023/08/23 02:21:53;;;;;;;8.10;7.30;;;;;;;19.09;nan;97114.81;5015870;28;20211;-62
2023/08/23 02:24:20;;;;;;;7.73;7.17;;;;;;;19.29;nan;97151.97;5012607;28;20209;-63
2023/08/23 02:26:48;;;;;;;8.07;7.43;;;;;;;19.29;nan;97148.44;5018818;28;20274;-62
2023/08/23 02:29:16;;;;;;;7.80;7.23;;;;;;;19.20;nan;97148.03;4887872;28;20212;-63
2023/08/23 02:31:45;;;;;;;8.10;7.37;;;;;;;19.18;nan;97150.94;5015210;28;20459;-64
2023/08/23 02:34:12;;;;;;;8.27;7.57;;;;;;;19.14;nan;97152.47;5013151;28;20211;-63
2023/08/23 02:36:40;;;;;;;8.53;7.73;;;;;;;19.13;nan;97152.72;5018294;28;20723;-63
2023/08/23 02:39:07;;;;;;;8.30;7.60;;;;;;;19.14;nan;97143.63;5012308;28;20212;-65
2023/08/23 02:41:35;;;;;;;10.13;7.70;;;;;;;19.11;nan;97149.44;5016286;28;20734;-64
2023/08/23 02:44:03;;;;;;;7.77;7.10;;;;;;;19.05;nan;97156.63;5010296;28;20219;-63
2023/08/23 02:46:31;;;;;;;7.73;7.23;;;;;;;18.99;nan;97161.06;5014867;28;20239;-65
2023/08/23 02:49:00;;;;;;;10.20;8.73;;;;;;;18.96;nan;97161.50;5012985;28;20214;-62
2023/08/23 02:51:27;;;;;;;8.07;7.37;;;;;;;18.95;nan;97168.75;5019739;28;20208;-61
2023/08/23 02:53:55;;;;;;;9.13;7.03;;;;;;;18.91;nan;97158.72;5012040;28;20208;-61
2023/08/23 02:56:23;;;;;;;7.37;6.97;;;;;;;18.89;nan;97164.31;5017969;28;20220;-62
2023/08/23 02:58:50;;;;;;;7.80;7.00;;;;;;;18.80;nan;97165.75;4889498;28;20738;-65
2023/08/23 03:01:18;;;;;;;7.90;7.37;;;;;;;18.73;nan;97159.72;5014826;28;20679;-63
2023/08/23 03:03:46;;;;;;;7.47;6.83;;;;;;;18.64;nan;97143.16;5010728;28;20764;-64
2023/08/23 03:06:15;;;;;;;6.53;6.13;;;;;;;18.72;nan;97160.75;5020103;28;20409;-62
2023/08/23 03:08:42;;;;;;;7.60;7.10;;;;;;;18.47;nan;97176.09;5014702;28;20212;-61
2023/08/23 03:11:10;;;;;;;8.53;6.47;;;;;;;18.48;nan;97176.91;5014974;28;20215;-64
2023/08/23 03:13:38;;;;;;;8.07;7.37;;;;;;;18.48;nan;97179.56;5013237;28;20240;-63
2023/08/23 03:16:06;;;;;;;7.63;6.83;;;;;;;18.50;nan;97178.31;5013856;28;20228;-62
2023/08/23 03:18:33;;;;;;;7.70;7.10;;;;;;;18.36;nan;97161.63;5018178;28;20247;-63
2023/08/23 03:21:01;;;;;;;8.10;7.50;;;;;;;18.32;nan;97163.16;5014129;28;20200;-62
2023/08/23 03:23:30;;;;;;;8.13;7.33;;;;;;;18.26;nan;97164.09;5012013;28;20802;-64
2023/08/23 03:25:58;;;;;;;7.87;7.30;;;;;;;18.21;nan;97164.00;5013661;28;20904;-62
2023/08/23 03:28:25;;;;;;;8.20;7.50;;;;;;;18.19;nan;97166.91;4941752;28;21060;-63
2023/08/23 03:30:53;;;;;;;9.33;8.57;;;;;;;18.19;nan;97174.13;4973344;28;20212;-60
2023/08/23 03:33:21;;;;;;;8.93;7.90;;;;;;;18.15;nan;97173.78;5019289;28;20224;-64
2023/08/23 03:35:53;;;;;;;8.20;7.60;;;;;;;18.12;nan;97176.09;5015975;28;20239;-62
2023/08/23 03:38:20;;;;;;;8.23;7.63;;;;;;;18.11;nan;97183.34;5015075;28;20212;-60
2023/08/23 03:40:50;;;;;;;8.50;7.90;;;;;;;18.05;nan;97182.38;5017078;28;20199;-63
2023/08/23 03:43:18;;;;;;;10.03;8.23;;;;;;;18.00;nan;97194.84;5017801;28;20604;-62
2023/08/23 03:45:46;;;;;;;8.43;7.73;;;;;;;17.80;nan;97158.44;5019149;28;20204;-63
2023/08/23 03:48:14;;;;;;;9.17;8.57;;;;;;;17.97;nan;97189.91;5014893;28;20204;-61
2023/08/23 03:50:41;;;;;;;8.90;8.10;;;;;;;17.95;nan;97195.53;5018654;28;20214;-63
2023/08/23 03:53:09;;;;;;;8.70;8.00;;;;;;;17.90;nan;97192.72;5015834;28;20584;-62
2023/08/23 03:55:37;;;;;;;9.40;8.70;;;;;;;17.87;nan;97199.34;5018796;28;20398;-62
2023/08/23 03:58:07;;;;;;;9.57;8.77;;;;;;;17.72;nan;97180.22;5002983;28;20785;-63
2023/08/23 04:00:36;;;;;;;8.83;8.20;;;;;;;17.81;nan;97196.78;4916040;28;20217;-64
2023/08/23 04:03:04;;;;;;;8.33;7.67;;;;;;;17.79;nan;97200.50;5016423;28;20204;-64
2023/08/23 04:05:32;;;;;;;9.27;8.37;;;;;;;17.79;nan;97205.06;5017737;28;20303;-63
2023/08/23 04:08:00;;;;;;;8.73;7.87;;;;;;;17.81;nan;97207.50;5016262;28;20703;-62
2023/08/23 04:10:28;;;;;;;8.07;7.47;;;;;;;17.74;nan;97210.28;5013770;28;20205;-63
2023/08/23 04:12:55;;;;;;;8.53;7.73;;;;;;;17.74;nan;97205.72;5018561;28;20232;-64
2023/08/23 04:15:24;;;;;;;8.70;7.80;;;;;;;17.70;nan;97206.44;5015322;28;20492;-63
2023/08/23 04:17:52;;;;;;;8.43;7.77;;;;;;;17.70;nan;97214.47;5017607;28;20233;-62
2023/08/23 04:20:20;;;;;;;8.47;7.63;;;;;;;17.69;nan;97218.19;5013812;28;20247;-64
2023/08/23 04:22:47;;;;;;;7.53;6.80;;;;;;;17.68;nan;97211.22;5019252;28;20200;-63
2023/08/23 04:25:15;;;;;;;8.40;7.70;;;;;;;17.65;nan;97215.97;5013608;28;20200;-63
2023/08/23 04:27:43;;;;;;;8.83;8.00;;;;;;;17.67;nan;97214.94;5017338;28;20255;-63
2023/08/23 04:30:11;;;;;;;8.50;7.80;;;;;;;17.69;nan;97220.88;5015446;28;20211;-63
2023/08/23 04:32:40;;;;;;;10.07;8.43;;;;;;;17.70;nan;97223.31;5021175;28;20223;-63
2023/08/23 04:35:09;;;;;;;9.10;8.30;;;;;;;17.76;nan;97226.94;4890291;28;20220;-63
2023/08/23 04:37:37;;;;;;;9.70;8.90;;;;;;;17.77;nan;97221.34;5020283;28;20225;-63
2023/08/23 04:40:07;;;;;;;9.77;9.00;;;;;;;17.79;nan;97221.94;5012622;28;20837;-62
2023/08/23 04:42:36;;;;;;;9.97;9.20;;;;;;;17.74;nan;97213.75;5015941;28;20208;-63
2023/08/23 04:45:04;;;;;;;9.93;9.23;;;;;;;17.75;nan;97218.09;5013525;28;20204;-64
2023/08/23 04:47:32;;;;;;;10.00;9.07;;;;;;;17.74;nan;97216.44;5017476;28;20244;-64
2023/08/23 04:50:02;;;;;;;9.70;8.63;;;;;;;17.74;nan;97216.44;5011449;28;20211;-63
2023/08/23 04:52:29;;;;;;;10.43;9.53;;;;;;;17.75;nan;97212.72;5017183;28;20572;-62
2023/08/23 04:54:57;;;;;;;9.73;8.93;;;;;;;17.79;nan;97215.78;5016436;28;20207;-61
2023/08/23 04:57:25;;;;;;;9.23;8.63;;;;;;;17.82;nan;97214.50;5020916;28;20875;-61
2023/08/23 04:59:52;;;;;;;9.80;8.90;;;;;;;17.83;nan;97200.84;5011797;28;20201;-62
2023/08/23 05:02:20;;;;;;;9.53;8.83;;;;;;;17.88;nan;97206.34;5021084;28;20267;-64
2023/08/23 05:04:48;;;;;;;8.53;7.93;;;;;;;17.96;nan;97212.41;5012686;28;20209;-63
2023/08/23 05:07:17;;;;;;;9.60;7.70;;;;;;;18.02;nan;97208.84;5016269;28;20240;-63
2023/08/23 05:09:44;;;;;;;10.00;9.13;;;;;;;18.11;nan;97209.31;4887907;28;20568;-62
2023/08/23 05:12:12;;;;;;;9.60;8.67;;;;;;;18.22;nan;97206.66;5013024;28;20211;-62
2023/08/23 05:14:40;;;;;;;9.83;8.77;;;;;;;18.30;nan;97207.34;5015646;28;20239;-61
2023/08/23 05:17:07;;;;;;;10.27;9.17;;;;;;;18.45;nan;97196.97;5015501;28;20591;-64
2023/08/23 05:19:35;;;;;;;9.90;8.93;;;;;;;18.61;nan;97195.44;5015045;28;20196;-62
2023/08/23 05:22:04;;;;;;;9.37;8.67;;;;;;;18.66;nan;97184.81;5016408;28;20263;-65
2023/08/23 05:24:33;;;;;;;8.73;8.10;;;;;;;18.89;nan;97191.16;5012222;28;20635;-62
2023/08/23 05:27:00;;;;;;;8.90;8.10;;;;;;;19.01;nan;97185.81;5017666;28;20238;-62
2023/08/23 05:29:28;;;;;;;8.97;8.27;;;;;;;19.15;nan;97182.84;5012331;28;20215;-63
2023/08/23 05:31:56;;;;;;;9.53;8.70;;;;;;;19.28;nan;97189.78;5017015;28;20277;-63
2023/08/23 05:34:23;;;;;;;10.03;7.77;;;;;;;19.38;nan;97192.69;5015780;28;20232;-63
2023/08/23 05:36:51;;;;;;;8.47;7.67;;;;;;;19.49;nan;97181.06;5023576;28;20241;-62
2023/08/23 05:39:20;;;;;;;8.90;7.77;;;;;;;19.61;nan;97181.00;4887397;28;20224;-61
2023/08/23 05:41:49;;;;;;;8.53;7.90;;;;;;;19.79;nan;97189.88;5017658;28;20204;-61
2023/08/23 05:44:16;;;;;;;7.40;6.70;;;;;;;20.00;nan;97182.19;5013294;28;20219;-61
2023/08/23 05:46:44;;;;;;;7.70;7.03;;;;;;;20.13;nan;97187.22;5017572;28;20354;-62
2023/08/23 05:49:11;;;;;;;7.80;7.00;;;;;;;20.20;nan;97190.56;5010703;28;20212;-62
2023/08/23 05:51:39;;;;;;;8.03;7.37;;;;;;;20.31;nan;97185.34;5018153;28;20231;-60
2023/08/23 05:54:07;;;;;;;7.50;6.90;;;;;;;20.32;nan;97185.09;5011097;28;20224;-63
2023/08/23 05:56:34;;;;;;;9.27;8.03;;;;;;;20.38;nan;97188.66;5017404;28;20719;-65
2023/08/23 05:59:03;;;;;;;8.83;8.00;;;;;;;20.44;nan;97195.75;5012181;28;20407;-63
2023/08/23 06:01:32;;;;;;;7.73;7.13;;;;;;;20.61;nan;97190.34;5015274;28;20644;-63
2023/08/23 06:03:59;;;;;;;11.47;7.23;;;;;;;20.61;nan;97184.13;5011540;28;20440;-63
2023/08/23 06:06:27;;;;;;;8.17;7.37;;;;;;;20.70;nan;97184.50;4954457;28;20243;-62
2023/08/23 06:08:55;;;;;;;9.50;6.73;;;;;;;20.71;nan;97181.59;5015686;28;20672;-61
2023/08/23 06:11:25;;;;;;;10.23;7.57;;;;;;;20.82;nan;97185.22;4887588;28;20228;-62
2023/08/23 06:13:52;;;;;;;9.30;8.50;;;;;;;20.86;nan;97189.06;5017449;28;20235;-63
2023/08/23 06:16:21;;;;;;;8.37;7.73;;;;;;;20.92;nan;97198.00;5011749;28;20332;-64
2023/08/23 06:18:49;;;;;;;7.57;6.87;;;;;;;21.04;nan;97187.94;5015113;28;20209;-63
2023/08/23 06:21:17;;;;;;;9.40;7.87;;;;;;;21.02;nan;97191.94;5011648;28;20212;-63
2023/08/23 06:23:47;;;;;;;11.53;7.40;;;;;;;21.01;nan;97195.69;5014432;28;20211;-61
2023/08/23 06:26:15;;;;;;;8.43;7.77;;;;;;;21.11;nan;97190.41;5008890;28;20224;-62
2023/08/23 06:28:43;;;;;;;8.67;7.60;;;;;;;21.22;nan;97191.34;5018536;28;20219;-62
2023/08/23 06:31:19;;;;;;;7.60;7.10;;;;;;;21.42;nan;97198.03;5011170;28;20212;-62
2023/08/23 06:33:48;;;;;;;7.87;7.17;;;;;;;21.69;nan;97198.06;5019034;28;20224;-62
2023/08/23 06:36:16;;;;;;;7.80;7.27;;;;;;;21.93;nan;97190.44;5009813;28;20239;-63
2023/08/23 06:38:43;;;;;;;8.13;7.43;;;;;;;21.93;nan;97195.00;5013608;28;20208;-63
2023/08/23 06:41:11;;;;;;;8.20;7.40;;;;;;;21.89;nan;97188.50;5012262;28;20223;-64
2023/08/23 06:43:39;;;;;;;8.10;7.37;;;;;;;22.10;nan;97200.25;5016236;28;20205;-62
2023/08/23 06:46:06;;;;;;;9.33;7.07;;;;;;;22.44;nan;97196.47;4886858;28;20227;-63
2023/08/23 06:48:34;;;;;;;8.17;7.47;;;;;;;22.83;nan;97204.25;5015059;28;20307;-63
2023/08/23 06:51:03;;;;;;;7.30;6.70;;;;;;;22.97;nan;97202.69;5013836;28;20841;-63
2023/08/23 06:53:33;;;;;;;7.23;6.73;;;;;;;22.83;nan;97205.06;5012546;28;20201;-63
2023/08/23 06:56:03;;;;;;;7.57;6.83;;;;;;;22.65;nan;97202.81;5011772;28;20224;-63
2023/08/23 06:58:31;;;;;;;7.33;6.63;;;;;;;22.39;nan;97202.63;5015557;28;20219;-62
2023/08/23 07:00:58;;;;;;;7.87;7.10;;;;;;;22.33;nan;97199.06;5012736;28;20215;-62
2023/08/23 07:03:26;;;;;;;7.20;6.60;;;;;;;22.19;nan;97201.44;5012630;28;20310;-61
2023/08/23 07:05:54;;;;;;;7.67;7.07;;;;;;;22.22;nan;97197.38;5018563;28;20231;-63
2023/08/23 07:08:23;;;;;;;7.77;7.00;;;;;;;22.38;nan;97201.00;5018446;28;20664;-64
2023/08/23 07:10:51;;;;;;;8.40;7.60;;;;;;;22.48;nan;97198.38;5014362;28;20226;-63
2023/08/23 07:13:18;;;;;;;7.53;6.93;;;;;;;22.40;nan;97199.69;5019023;28;20215;-62
2023/08/23 07:15:46;;;;;;;7.67;6.90;;;;;;;22.47;nan;97204.06;4886373;28;20228;-62
2023/08/23 07:18:14;;;;;;;7.23;6.67;;;;;;;22.61;nan;97207.91;5016499;28;20824;-63
2023/08/23 07:20:41;;;;;;;7.43;6.63;;;;;;;22.57;nan;97206.03;5016541;28;20200;-62
2023/08/23 07:23:09;;;;;;;7.60;6.90;;;;;;;22.69;nan;97210.13;5018232;28;20213;-63
2023/08/23 07:25:38;;;;;;;8.37;7.67;;;;;;;22.65;nan;97216.31;5017946;28;20200;-63
2023/08/23 07:28:06;;;;;;;8.27;7.50;;;;;;;22.91;nan;97219.13;5021112;28;20658;-65
2023/08/23 07:30:34;;;;;;;8.03;7.17;;;;;;;22.99;nan;97211.34;5019249;28;20231;-62
2023/08/23 07:33:02;;;;;;;7.80;7.10;;;;;;;23.32;nan;97218.50;5013170;28;20337;-63
2023/08/23 07:35:29;;;;;;;7.47;6.87;;;;;;;23.30;nan;97215.25;5014854;28;20293;-63
2023/08/23 07:37:57;;;;;;;7.23;6.63;;;;;;;23.42;nan;97208.53;5018054;28;20719;-65
2023/08/23 07:40:25;;;;;;;7.13;6.63;;;;;;;23.46;nan;97216.13;5014575;28;20564;-63
2023/08/23 07:42:54;;;;;;;10.13;9.13;;;;;;;23.65;nan;97216.41;5018109;28;20208;-63
2023/08/23 07:45:24;;;;;;;9.83;6.93;;;;;;;23.73;nan;97225.91;5012074;28;20223;-63
2023/08/23 07:47:52;;;;;;;8.20;6.93;;;;;;;23.70;nan;97224.53;5018258;28;20228;-62
2023/08/23 07:50:20;;;;;;;10.73;7.57;;;;;;;23.82;nan;97238.63;4891888;28;21335;-63
2023/08/23 07:52:48;;;;;;;7.50;6.10;;;;;;;23.94;nan;97230.25;5018915;28;20221;-63
2023/08/23 07:55:15;;;;;;;6.10;5.70;;;;;;;24.20;nan;97230.28;5014984;28;20879;-64
2023/08/23 07:57:43;;;;;;;7.57;6.87;;;;;;;24.28;nan;97231.63;5021931;28;20248;-63
2023/08/23 08:00:13;;;;;;;7.40;6.90;;;;;;;24.46;nan;97230.25;5012009;28;20212;-62
2023/08/23 08:02:41;;;;;;;9.73;7.10;;;;;;;24.39;nan;97216.16;5017347;28;20226;-63
2023/08/23 08:05:09;;;;;;;7.80;6.47;;;;;;;24.55;nan;97231.31;5014806;28;20226;-63
2023/08/23 08:07:37;;;;;;;8.30;7.50;;;;;;;24.64;nan;97231.59;5018607;28;20228;-62
2023/08/23 08:10:25;;;;;;;10.30;6.10;;;;;;;24.70;nan;97232.38;5014855;28;20219;-62
2023/08/23 08:12:52;;;;;;;8.53;6.50;;;;;;;24.53;nan;97240.78;5019394;28;20216;-64
2023/08/23 08:15:21;;;;;;;7.50;6.30;;;;;;;24.68;nan;97238.06;5015086;28;20232;-62
2023/08/23 08:17:51;;;;;;;7.30;6.67;;;;;;;24.68;nan;97235.38;5017249;28;20224;-64
2023/08/23 08:20:19;;;;;;;7.40;6.80;;;;;;;24.84;nan;97238.06;4886782;28;20281;-64
2023/08/23 08:22:47;;;;;;;8.00;5.73;;;;;;;24.84;nan;97238.06;5018740;28;20208;-64
2023/08/23 08:25:14;;;;;;;7.40;6.03;;;;;;;24.97;nan;97231.25;5012768;28;20247;-63
2023/08/23 08:27:42;;;;;;;6.90;6.30;;;;;;;25.10;nan;97238.75;5018124;28;20302;-64
2023/08/23 08:30:10;;;;;;;7.03;6.23;;;;;;;25.32;nan;97237.59;5013771;28;20738;-64
2023/08/23 08:32:40;;;;;;;10.53;6.10;;;;;;;25.37;nan;97234.84;5019312;28;20200;-64
2023/08/23 08:35:08;;;;;;;7.27;5.80;;;;;;;25.38;nan;97230.22;5014602;28;20232;-66
2023/08/23 08:37:36;;;;;;;6.17;5.57;;;;;;;25.50;nan;97233.47;5015295;28;20231;-64
2023/08/23 08:40:05;;;;;;;7.20;6.60;;;;;;;25.48;nan;97241.06;5016231;28;20280;-65
2023/08/23 08:42:33;;;;;;;7.03;6.30;;;;;;;25.50;nan;97238.06;5017236;28;20207;-64
2023/08/23 08:45:01;;;;;;;7.07;6.03;;;;;;;25.48;nan;97235.66;5014943;28;20275;-64
2023/08/23 08:47:28;;;;;;;6.33;5.80;;;;;;;25.54;nan;97236.41;5017375;28;20577;-64
2023/08/23 08:49:57;;;;;;;6.03;5.53;;;;;;;25.51;nan;97237.78;5013761;28;20243;-63
2023/08/23 08:52:26;;;;;;;6.30;5.70;;;;;;;25.48;nan;97237.53;5016861;28;20212;-64
2023/08/23 08:54:54;;;;;;;6.50;5.90;;;;;;;25.62;nan;97233.13;4895730;28;21049;-63
2023/08/23 08:57:23;;;;;;;6.37;5.87;;;;;;;25.57;nan;97223.09;5028294;28;20239;-64
2023/08/23 08:59:51;;;;;;;9.17;5.83;;;;;;;25.83;nan;97232.97;5022600;28;20215;-64
2023/08/23 09:02:19;;;;;;;6.07;5.57;;;;;;;25.83;nan;97224.84;5019161;28;20212;-64
2023/08/23 09:04:47;;;;;;;6.73;5.27;;;;;;;25.96;nan;97229.63;5015845;28;20239;-63
2023/08/23 09:07:16;;;;;;;8.03;4.97;;;;;;;26.10;nan;97224.34;5014896;28;20608;-62
2023/08/23 09:09:44;;;;;;;6.97;5.30;;;;;;;26.41;nan;97224.09;5014949;28;20894;-62
2023/08/23 09:12:12;;;;;;;5.63;5.17;;;;;;;26.29;nan;97223.69;5018326;28;20209;-62
2023/08/23 09:14:40;;;;;;;6.07;5.00;;;;;;;26.34;nan;97229.06;5014968;28;20201;-63
2023/08/23 09:17:08;;;;;;;5.97;5.47;;;;;;;26.16;nan;97230.59;5014524;28;20254;-64
2023/08/23 09:19:37;;;;;;;5.70;5.27;;;;;;;26.21;nan;97229.75;5014587;28;20205;-62
2023/08/23 09:22:05;;;;;;;5.53;5.03;;;;;;;26.08;nan;97229.25;5013755;28;20204;-63
2023/08/23 09:24:34;;;;;;;6.37;3.90;;;;;;;25.90;nan;97235.38;5016929;28;20231;-64
2023/08/23 09:27:02;;;;;;;5.70;5.20;;;;;;;25.98;nan;97226.63;5017928;28;20226;-63
2023/08/23 09:29:30;;;;;;;4.13;3.73;;;;;;;26.22;nan;97218.56;4950034;28;20934;-64
2023/08/23 09:31:59;;;;;;;4.13;3.93;;;;;;;26.33;nan;97221.19;4960593;28;20222;-62
2023/08/23 09:34:27;;;;;;;5.07;4.57;;;;;;;26.36;nan;97213.28;5016096;28;20816;-62
2023/08/23 09:37:05;;;;;;;6.50;5.13;;;;;;;26.50;nan;97218.88;5015031;28;20244;-63
2023/08/23 09:39:34;;;;;;;5.50;5.10;;;;;;;26.77;nan;97220.22;5015387;28;20723;-63
2023/08/23 09:42:05;;;;;;;5.80;4.90;;;;;;;26.60;nan;97220.69;5015869;28;20790;-62
2023/08/23 09:44:37;;;;;;;5.40;4.90;;;;;;;26.64;nan;97223.59;5014272;28;20204;-64
2023/08/23 09:47:06;;;;;;;4.20;3.90;;;;;;;26.57;nan;97224.75;5015802;28;20225;-62
2023/08/23 09:49:34;;;;;;;5.87;4.60;;;;;;;26.71;nan;97214.03;5014888;28;20205;-63
2023/08/23 09:52:03;;;;;;;4.50;4.20;;;;;;;26.75;nan;97219.72;5012727;28;20198;-63
2023/08/23 09:54:39;;;;;;;4.67;4.37;;;;;;;26.82;nan;97216.63;5012187;28;20962;-63
2023/08/23 09:57:18;;;;;;;5.07;4.23;;;;;;;27.13;nan;97222.53;5013931;28;20567;-62
2023/08/23 09:59:47;;;;;;;6.63;4.07;;;;;;;27.37;nan;97215.44;5015746;28;20232;-63
2023/08/23 10:02:17;;;;;;;5.67;4.17;;;;;;;27.38;nan;97212.41;5017104;28;20202;-62
2023/08/23 10:04:45;;;;;;;5.53;5.03;;;;;;;27.20;nan;97214.00;4910060;28;20739;-63
2023/08/23 10:07:15;;;;;;;5.87;4.90;;;;;;;27.28;nan;97209.84;5009061;28;20242;-63
2023/08/23 10:09:45;;;;;;;5.20;4.90;;;;;;;27.42;nan;97209.94;5014830;28;20209;-65
2023/08/23 10:12:13;;;;;;;4.40;4.10;;;;;;;27.24;nan;97214.25;5019743;28;20292;-63
2023/08/23 10:14:44;;;;;;;5.57;3.87;;;;;;;27.14;nan;97212.47;5012716;28;20205;-64
2023/08/23 10:17:14;;;;;;;5.67;4.30;;;;;;;27.31;nan;97206.53;5012909;28;20228;-64
2023/08/23 10:19:42;;;;;;;5.70;4.90;;;;;;;27.33;nan;97208.97;5013071;28;20208;-65
2023/08/23 10:22:10;;;;;;;6.77;5.00;;;;;;;27.44;nan;97205.00;5015312;28;20213;-64
2023/08/23 10:24:37;;;;;;;4.53;4.20;;;;;;;27.55;nan;97209.22;5013431;28;20240;-65
2023/08/23 10:27:08;;;;;;;6.03;4.17;;;;;;;27.50;nan;97206.56;5012945;28;20226;-63
2023/08/23 10:29:38;;;;;;;4.67;3.90;;;;;;;27.09;nan;97207.09;5012535;28;20214;-63
2023/08/23 10:32:09;;;;;;;6.90;4.40;;;;;;;27.08;nan;97202.75;5013285;28;20214;-64
2023/08/23 10:34:38;;;;;;;6.43;4.07;;;;;;;27.11;nan;97202.19;4956910;28;20212;-63
2023/08/23 10:37:16;;;;;;;4.27;3.97;;;;;;;27.36;nan;97195.56;5011700;28;20233;-62
2023/08/23 10:39:49;;;;;;;5.30;3.90;;;;;;;27.57;nan;97203.50;4895647;28;20648;-65
2023/08/23 10:42:18;;;;;;;3.53;3.27;;;;;;;27.46;nan;97194.63;5015233;28;20202;-64
2023/08/23 10:44:47;;;;;;;6.60;4.17;;;;;;;27.37;nan;97191.75;5013605;28;20270;-62
2023/08/23 10:47:16;;;;;;;8.43;4.50;;;;;;;27.35;nan;97183.09;5016155;28;20230;-65
2023/08/23 10:49:44;;;;;;;4.40;4.00;;;;;;;27.45;nan;97193.00;5013414;28;20221;-63
2023/08/23 10:52:12;;;;;;;4.53;4.23;;;;;;;27.35;nan;97191.25;5015164;28;20210;-63
2023/08/23 10:54:41;;;;;;;4.40;3.97;;;;;;;27.33;nan;97179.84;5009969;28;20210;-63
2023/08/23 10:57:09;;;;;;;3.87;3.67;;;;;;;27.55;nan;97182.00;5021417;28;20237;-63
2023/08/23 10:59:38;;;;;;;4.20;3.80;;;;;;;27.72;nan;97181.47;5012164;28;20209;-63
2023/08/23 11:02:07;;;;;;;4.20;3.90;;;;;;;27.68;nan;97185.91;5014496;28;20217;-64
2023/08/23 11:04:35;;;;;;;4.60;3.83;;;;;;;27.57;nan;97187.16;5013068;28;20211;-64
2023/08/23 11:07:03;;;;;;;5.47;3.87;;;;;;;27.36;nan;97184.69;5013709;28;20233;-63
2023/08/23 11:09:30;;;;;;;4.40;4.00;;;;;;;27.45;nan;97177.50;5015910;28;20208;-63
2023/08/23 11:11:59;;;;;;;4.70;4.07;;;;;;;27.43;nan;97181.63;4887638;28;20218;-63
2023/08/23 11:14:26;;;;;;;4.40;3.97;;;;;;;27.56;nan;97172.75;5016034;28;20204;-63
2023/08/23 11:16:56;;;;;;;4.13;3.70;;;;;;;27.65;nan;97172.06;5011851;28;20243;-63
2023/08/23 11:19:23;;;;;;;4.90;3.90;;;;;;;27.62;nan;97176.19;5015638;28;20685;-63
2023/08/23 11:21:52;;;;;;;4.83;4.13;;;;;;;27.64;nan;97168.56;5012955;28;20212;-62
2023/08/23 11:24:20;;;;;;;4.70;3.93;;;;;;;27.65;nan;97164.72;5013165;28;20214;-63
2023/08/23 11:26:47;;;;;;;3.97;3.67;;;;;;;27.88;nan;97159.47;5011754;28;20233;-63
2023/08/23 11:29:15;;;;;;;5.17;3.97;;;;;;;27.76;nan;97157.22;5017859;28;20213;-63
2023/08/23 11:31:43;;;;;;;4.27;3.97;;;;;;;27.98;nan;97151.13;5011553;28;20210;-63
2023/08/23 11:34:12;;;;;;;5.60;3.50;;;;;;;27.96;nan;97155.25;5017046;28;20231;-63
2023/08/23 11:36:40;;;;;;;8.47;4.00;;;;;;;27.99;nan;97143.75;5010856;28;20231;-63
2023/08/23 11:39:08;;;;;;;6.03;3.87;;;;;;;28.05;nan;97144.47;5014371;28;20208;-62
2023/08/23 11:41:36;;;;;;;5.97;4.03;;;;;;;28.07;nan;97147.72;4886756;28;20574;-63
2023/08/23 11:44:05;;;;;;;3.77;3.40;;;;;;;27.99;nan;97141.03;5015571;28;20234;-63
2023/08/23 11:46:34;;;;;;;3.77;3.53;;;;;;;27.99;nan;97150.03;5013794;28;20649;-62
2023/08/23 11:49:03;;;;;;;3.40;3.20;;;;;;;28.15;nan;97141.59;5015511;28;20245;-63
2023/08/23 11:51:44;;;;;;;3.50;3.20;;;;;;;28.28;nan;97148.19;5012103;28;20212;-63
2023/08/23 11:54:12;;;;;;;3.80;3.57;;;;;;;28.16;nan;97135.88;5015844;28;20208;-63